29/4 a 8/5 - Fresco a templado y luego breve entrada de aire polar

Danywilde
Mensajes: 2613
Registrado: Mar Ene 24, 2012 1:41 pm
Ubicación: Wilde, Buenos Aires

Re: 29/4 a 9/5 - Fresco a templado y luego breve entrada de aire polar

Mensaje por Danywilde » Lun May 04, 2020 12:53 pm

WhatsApp Image 2020-05-04 at 12.51.45.jpeg
BASE DEL CATEDRAL.

Avatar de Usuario
diegotelesa
Mensajes: 1488
Registrado: Mié Jul 24, 2013 10:48 pm
Ubicación: Ramos Mejía

Re: 29/4 a 9/5 - Fresco a templado y luego breve entrada de aire polar

Mensaje por diegotelesa » Lun May 04, 2020 1:08 pm

Llueve débilmente acá.

Avatar de Usuario
Diecha
Mensajes: 12484
Registrado: Jue Ago 25, 2011 9:31 pm
Ubicación: Lomas de Zamora

Re: 29/4 a 9/5 - Fresco a templado y luego breve entrada de aire polar

Mensaje por Diecha » Lun May 04, 2020 1:18 pm

- San Fernando 13 hs: SADF 041600Z 09004KT 8000 -RA NSC 17/15 Q1011
- Aeroparque 13 hs: SABE 041600Z 33005KT 300V050 6000 -RA NSC 17/15 Q1013
- Ezeiza 13 hs: SAEZ 041600Z 36004KT 9000 -RA FEW045 BKN060 OVC200 19/14 Q1012

Imagen
Imagen
Imagen
Última edición por Diecha el Lun May 04, 2020 2:21 pm, editado 1 vez en total.

Avatar de Usuario
Ezequiel15
Mensajes: 11824
Registrado: Lun Ene 23, 2012 4:18 pm
Ubicación: I Casanova
Contactar:

Re: 29/4 a 9/5 - Fresco a templado y luego breve entrada de aire polar

Mensaje por Ezequiel15 » Lun May 04, 2020 1:21 pm

Las Lomitas 32,6 a las 12hs
Formosa 31,7

El Nocturno
Mensajes: 101
Registrado: Dom Jul 24, 2011 1:00 am
Ubicación: Zárate

Re: 29/4 a 9/5 - Fresco a templado y luego breve entrada de aire polar

Mensaje por El Nocturno » Lun May 04, 2020 1:29 pm

Chaparrón y truenos por Zárate

Avatar de Usuario
Ezequiel1995
Mensajes: 1372
Registrado: Mar Nov 12, 2019 4:50 pm
Ubicación: Merlo, Buenos Aires
Contactar:

Re: 29/4 a 9/5 - Fresco a templado y luego breve entrada de aire polar

Mensaje por Ezequiel1995 » Lun May 04, 2020 1:50 pm

LLueve débil acá también

Avatar de Usuario
juampa20
Mensajes: 4948
Registrado: Lun Dic 10, 2012 8:47 pm
Ubicación: Casilda, Santa Fe
Contactar:

Re: 29/4 a 9/5 - Fresco a templado y luego breve entrada de aire polar

Mensaje por juampa20 » Lun May 04, 2020 1:57 pm

Llovizna por Casilda, ya mojó bien el piso...

Enviado desde mi SM-A505G mediante Tapatalk

Imagen

Avatar de Usuario
Ale de Castelar
Mensajes: 26873
Registrado: Sab Mar 03, 2012 12:25 pm
Ubicación: Caballito

Re: 29/4 a 9/5 - Fresco a templado y luego breve entrada de aire polar

Mensaje por Ale de Castelar » Lun May 04, 2020 2:00 pm

Granicera en el delta

Y ojo las del oeste
Adjuntos
RMA2_240_ZH_CMAX_20200504_164232Z.png

Avatar de Usuario
Marcelo_97
Mensajes: 3197
Registrado: Mar Nov 22, 2011 8:14 pm
Ubicación: Pontevedra, Merlo, Buenos Aires

Re: 29/4 a 9/5 - Fresco a templado y luego breve entrada de aire polar

Mensaje por Marcelo_97 » Lun May 04, 2020 2:06 pm

Chaparrón moderado a fuerte por acá, con algunos truenos.

Avatar de Usuario
Ezequiel1995
Mensajes: 1372
Registrado: Mar Nov 12, 2019 4:50 pm
Ubicación: Merlo, Buenos Aires
Contactar:

Re: 29/4 a 9/5 - Fresco a templado y luego breve entrada de aire polar

Mensaje por Ezequiel1995 » Lun May 04, 2020 2:11 pm

Marcelo_97 escribió:
Lun May 04, 2020 2:06 pm
Chaparrón moderado a fuerte por acá, con algunos truenos.
Idem acá

Responder